Date,TemperatureHighF,TemperatureAvgF,TemperatureLowF,DewpointHighF,DewpointAvgF,DewpointLowF,HumidityHigh,HumidityAvg,HumidityLow,PressureMaxIn,PressureMinIn,WindSpeedMaxMPH,WindSpeedAvgMPH,GustSpeedMaxMPH,PrecipitationSumIn
2014-1-1,22.6,15.0,9.1,16.4,10.4,3.9,98,83,59,30.23,30.06,14,4,0,0.00
2014-1-2,13.3,8.5,2.5,12.8,8.0,2.1,98,98,98,30.10,29.81,14,7,0,0.00
2014-1-3,15.8,3.8,-3.5,12.4,2.2,-4.1,98,93,73,30.23,29.89,8,2,0,0.00
2014-1-4,36.3,20.2,6.4,22.3,8.8,1.5,84,62,37,30.10,29.81,12,6,0,0.00
2014-1-5,40.6,34.7,31.3,34.7,27.4,20.5,98,76,53,29.93,29.21,6,2,0,0.26
2014-1-6,44.4,21.1,0.5,43.9,20.5,-1.7,98,97,84,29.69,29.04,19,10,0,0.28
2014-1-7,7.0,1.3,-5.6,6.6,0.6,-6.0,98,96,88,30.10,29.70,24,9,0,0.00
2014-1-8,18.1,11.9,4.3,17.1,10.9,3.9,98,96,79,30.28,30.09,13,4,0,0.00
2014-1-9,38.1,15.4,0.3,30.4,12.6,-0.1,98,91,51,30.48,30.19,6,0,0,0.00
2014-1-10,41.9,33.0,21.4,41.4,32.5,20.9,98,98,98,30.19,29.70,4,1,0,0.18
2014-1-11,51.4,44.1,34.2,50.9,43.6,33.7,98,98,98,29.68,29.03,15,6,0,0.63
2014-1-12,35.8,32.8,30.2,35.3,32.3,29.7,98,98,98,29.79,29.34,12,7,0,0.00
2014-1-13,53.1,44.4,34.0,45.9,39.2,33.5,98,83,58,29.71,29.46,14,7,0,0.21
2014-1-14,45.0,35.7,26.4,44.5,35.2,25.9,98,98,98,29.64,29.45,9,4,0,0.08
2014-1-15,35.1,30.1,25.9,34.6,28.7,24.1,98,95,75,29.81,29.57,16,7,0,0.00
2014-1-16,33.1,27.6,23.5,27.7,23.9,19.8,98,87,59,29.78,29.64,10,3,0,0.00
2014-1-17,38.8,30.9,24.6,33.3,28.6,24.1,98,92,70,29.65,29.56,15,4,0,0.00
2014-1-18,29.1,20.1,17.4,28.6,19.6,16.8,98,98,95,29.74,29.63,19,8,0,0.00
2014-1-19,28.9,22.2,15.6,28.4,21.5,14.0,98,97,91,29.65,29.29,18,9,0,0.00
2014-1-20,30.4,22.0,10.4,29.9,21.2,8.4,98,97,82,29.85,29.31,11,4,0,0.00
2014-1-21,10.8,5.1,-1.8,9.5,4.1,-2.2,98,96,82,29.95,29.84,11,3,0,0.00
2014-1-22,9.9,4.0,-2.6,3.9,1.1,-3.0,98,88,66,29.93,29.83,10,2,0,0.00
2014-1-23,16.9,7.5,-0.2,15.5,6.2,-0.6,98,94,68,30.20,29.85,6,2,0,0.00
2014-1-24,16.9,9.7,-1.3,11.2,4.7,-2.4,98,82,56,30.20,29.48,21,8,0,0.00
2014-1-25,24.3,17.1,5.4,23.8,16.5,5.0,98,97,77,29.47,29.04,19,8,0,0.00
2014-1-26,27.9,12.6,2.7,27.4,10.3,0.2,98,91,64,29.57,29.23,12,6,0,0.00
2014-1-27,29.7,14.9,1.6,29.2,10.3,-5.1,98,82,58,29.97,29.09,15,8,0,0.00
2014-1-28,7.2,2.1,-2.0,4.0,-2.1,-9.5,98,82,66,30.17,29.98,15,8,0,0.00
2014-1-29,13.3,6.4,-2.2,12.8,4.2,-8.3,98,91,65,30.07,29.87,17,9,0,0.00
2014-1-30,32.5,21.5,8.4,16.8,7.7,3.8,90,59,29,30.07,29.65,16,6,0,0.00
2014-1-31,34.3,30.9,28.2,32.9,27.6,20.4,98,88,65,30.00,29.71,12,6,0,0.00
2014-2-1,40.5,33.0,22.8,40.0,32.5,22.3,98,98,93,30.02,29.65,8,2,0,0.62
2014-2-2,38.3,30.5,23.4,37.8,30.0,22.9,98,98,98,30.06,29.67,8,2,0,0.08
2014-2-3,27.5,20.5,10.2,26.1,19.1,9.7,98,95,73,30.21,30.04,6,2,0,0.00
2014-2-4,28.8,17.9,6.6,22.9,15.8,6.2,98,92,70,30.31,30.07,7,2,0,0.00
2014-2-5,24.3,20.8,10.8,23.8,20.3,10.3,98,98,98,30.07,29.58,12,5,0,0.00
2014-2-6,20.7,13.1,1.0,20.2,12.6,0.6,98,98,98,30.18,30.02,12,5,0,0.00
2014-2-7,14.0,8.9,6.3,13.1,8.5,5.9,98,98,93,30.13,30.04,17,9,0,0.00
2014-2-8,18.1,10.4,4.5,16.0,9.7,4.1,98,97,86,30.15,30.03,13,5,0,0.00
2014-2-9,24.4,14.2,4.3,23.9,13.7,3.9,98,98,98,30.03,29.77,6,2,0,0.00
2014-2-10,28.4,13.5,3.6,23.9,12.3,3.2,98,95,73,30.15,29.94,12,4,0,0.00
2014-2-11,24.6,11.2,-1.7,16.4,8.1,-2.1,98,88,62,30.35,30.14,8,2,0,0.00
2014-2-12,33.1,11.6,-6.0,16.6,4.4,-6.4,98,76,41,30.34,29.98,5,2,0,0.03
2014-2-13,28.0,18.7,7.2,25.0,16.2,5.5,98,90,70,29.98,29.35,10,3,0,0.00
2014-2-14,26.8,24.4,21.4,26.3,23.9,20.9,98,98,98,29.55,29.26,12,5,0,0.00
2014-2-15,28.0,21.4,10.4,27.5,20.9,9.9,98,98,98,29.85,29.56,14,5,0,0.00
2014-2-16,22.3,12.4,5.9,21.8,11.9,5.5,98,98,98,30.13,29.82,8,3,0,0.00
2014-2-17,30.7,14.1,-2.4,17.3,7.0,-2.8,98,76,41,30.29,29.61,12,4,0,0.00
2014-2-18,30.6,25.8,21.4,29.5,24.6,15.5,98,96,53,29.84,29.53,17,7,0,0.00
2014-2-19,48.2,38.0,25.0,42.2,34.3,24.5,98,88,67,29.91,29.41,14,6,0,0.02
2014-2-20,43.5,34.9,29.1,41.4,33.9,28.6,98,96,76,29.96,29.50,8,3,0,1.21
2014-2-21,48.7,38.3,33.1,48.2,37.7,31.8,98,98,89,29.59,29.31,19,8,0,0.69
2014-2-22,41.7,36.9,34.3,39.6,32.3,25.4,98,84,62,29.77,29.57,21,11,0,0.00
2014-2-23,36.0,31.3,25.0,35.3,29.9,24.5,98,95,75,29.81,29.74,17,8,0,0.00
2014-2-24,25.7,20.3,17.1,24.3,19.1,15.2,98,95,73,29.92,29.76,12,6,0,0.00
2014-2-25,20.1,17.1,13.8,18.2,15.5,9.4,98,94,72,29.90,29.67,13,6,0,0.00
2014-2-26,18.3,9.5,4.3,17.8,6.3,-1.7,98,87,59,29.84,29.51,16,7,0,0.00
2014-2-27,22.6,10.6,1.8,22.1,7.5,-4.5,98,88,55,29.97,29.32,18,7,0,0.00
2014-2-28,18.5,5.2,-5.1,5.0,-1.0,-5.5,98,78,41,30.22,29.98,8,2,0,0.00
2014-3-1,36.1,24.4,6.8,31.0,16.0,0.2,98,72,49,30.02,29.86,11,4,0,0.02
2014-3-2,30.0,15.0,1.8,23.0,11.3,-2.9,98,87,52,30.08,30.01,8,2,0,0.00
2014-3-3,34.3,8.1,-2.6,13.3,3.9,-3.0,98,85,35,30.26,30.08,8,3,0,0.00
2014-3-4,19.6,8.5,-3.8,14.8,5.5,-4.2,98,89,56,30.23,30.06,7,3,0,0.00
2014-3-5,24.8,15.6,1.2,24.3,14.5,0.8,98,96,75,30.41,30.06,10,2,0,0.00
2014-3-6,32.4,14.6,-3.5,15.4,7.5,-3.9,98,77,47,30.44,30.07,10,3,0,0.00
2014-3-7,48.7,29.5,8.8,35.3,24.3,8.4,98,84,56,30.07,29.71,7,2,0,0.12
2014-3-8,38.7,31.5,25.5,38.2,31.0,25.0,98,98,98,29.88,29.68,6,2,0,0.00
2014-3-9,32.9,22.7,11.7,32.4,22.1,11.2,98,98,77,30.01,29.61,14,6,0,0.00
2014-3-10,43.5,38.0,32.5,43.0,37.5,32.0,98,98,95,29.62,29.33,16,8,0,0.00
2014-3-11,55.8,42.4,35.8,50.8,41.5,35.3,98,96,76,29.54,29.40,10,5,0,0.00
2014-3-12,40.3,25.8,11.8,39.8,25.3,11.3,98,98,98,29.59,29.20,20,6,0,0.10
2014-3-13,27.3,14.4,5.0,26.8,14.0,4.6,98,98,98,29.91,29.59,11,3,0,0.00
2014-3-14,55.9,39.7,15.1,49.3,33.8,14.6,98,82,51,29.87,29.39,15,8,0,0.30
2014-3-15,42.3,34.0,19.8,41.8,32.9,19.3,98,96,77,30.01,29.43,14,7,0,0.00
2014-3-16,24.3,16.8,6.1,19.4,12.1,4.3,98,83,54,30.22,30.01,9,3,0,0.00
2014-3-17,34.3,18.5,3.0,23.4,13.5,2.6,98,83,52,30.05,29.84,9,3,0,0.00
2014-3-18,56.1,32.4,14.5,39.0,27.2,14.0,98,84,47,29.94,29.86,7,2,0,0.00
2014-3-19,52.2,42.0,29.3,50.2,39.9,27.6,98,92,71,29.89,29.46,13,4,0,0.22
2014-3-20,42.8,34.2,30.2,42.3,33.7,29.7,98,98,98,29.77,29.47,20,8,0,0.01
2014-3-21,42.4,31.3,24.6,38.1,29.7,24.1,98,94,67,29.92,29.69,10,3,0,0.00
2014-3-22,48.9,35.8,30.0,44.4,35.0,29.5,98,97,82,29.93,29.35,17,6,0,0.07
2014-3-23,29.8,21.9,14.9,29.3,19.5,14.0,98,91,65,30.12,29.93,7,3,0,0.00
2014-3-24,25.7,19.6,13.6,24.3,18.5,13.1,98,96,82,30.13,29.92,10,5,0,0.00
2014-3-25,37.9,26.1,16.0,31.3,22.0,15.5,98,86,50,29.92,29.70,12,4,0,0.00
2014-3-26,27.1,19.5,13.1,23.1,15.9,12.4,98,87,64,30.13,29.83,9,4,0,0.00
2014-3-27,46.6,31.3,13.1,42.5,22.7,12.6,98,76,32,30.14,29.69,11,4,0,0.01
2014-3-28,53.2,44.3,36.7,52.6,43.8,36.2,98,98,98,30.03,29.52,16,6,0,0.23
2014-3-29,39.7,35.1,31.3,39.2,34.6,30.8,98,98,98,30.05,29.78,14,5,0,0.05
2014-3-30,46.0,34.8,27.9,45.5,34.3,27.4,98,98,98,29.90,29.77,14,4,0,0.47
2014-3-31,56.7,36.4,22.1,55.5,35.8,21.6,98,98,84,30.06,29.91,6,1,0,0.00
2014-4-1,70.7,46.4,30.4,54.9,42.0,29.9,98,87,45,29.99,29.57,14,4,0,0.00
2014-4-2,46.9,38.1,28.0,46.4,37.6,27.5,98,98,92,30.06,29.80,14,6,0,0.00
2014-4-3,45.1,34.3,22.3,44.6,33.8,21.8,98,98,98,30.06,29.84,10,3,0,0.00
2014-4-4,53.8,44.4,34.9,53.2,43.9,34.4,98,98,98,29.80,29.25,22,7,0,0.61
2014-4-5,39.2,34.4,28.2,38.7,33.9,27.7,98,98,98,30.00,29.47,28,9,0,0.01
2014-4-6,55.0,39.6,26.6,45.4,35.1,26.1,98,86,51,30.05,29.92,8,3,0,0.00
2014-4-7,54.7,42.1,31.1,50.6,40.5,30.6,98,94,68,29.92,29.27,8,3,0,0.89
2014-4-8,42.3,38.4,34.3,41.8,37.9,33.8,98,98,98,29.55,29.06,11,5,0,0.46
2014-4-9,56.1,40.1,28.9,50.2,38.0,28.4,98,94,53,29.84,29.55,9,3,0,0.00
2014-4-10,72.1,54.0,31.6,60.4,47.3,31.1,98,82,47,29.83,29.50,19,8,0,0.32
2014-4-11,65.3,49.7,37.4,64.5,48.6,36.9,98,96,75,29.89,29.69,6,3,0,0.08
2014-4-12,69.6,53.0,38.7,64.2,49.6,38.2,98,90,51,30.01,29.80,9,3,0,0.00
2014-4-13,78.8,62.0,45.5,78.2,61.4,45.0,98,98,98,29.84,29.61,13,5,0,0.13
2014-4-14,78.4,63.3,45.1,77.8,62.7,44.6,98,98,98,29.60,29.41,17,6,0,0.42
2014-4-15,45.0,33.4,23.5,44.5,32.9,23.0,98,98,98,30.01,29.41,14,4,0,0.34
2014-4-16,42.6,30.9,18.9,40.4,29.7,18.4,98,95,77,30.37,30.02,9,3,0,0.11
2014-4-17,63.3,45.3,24.4,43.9,36.6,23.9,98,75,45,30.40,30.18,9,4,0,0.00
2014-4-18,64.9,51.7,40.5,57.6,48.8,40.0,98,91,72,30.20,30.02,9,4,0,0.00
2014-4-19,56.7,43.5,30.2,55.2,42.1,29.7,98,95,80,30.26,30.10,11,3,0,0.00
2014-4-20,76.8,52.0,30.4,55.4,40.2,25.0,98,74,17,30.23,29.96,9,2,0,0.00
2014-4-21,73.4,60.3,43.5,60.7,50.6,42.9,98,74,36,29.96,29.52,11,3,0,0.00
2014-4-22,62.8,49.3,40.5,62.2,48.5,40.0,98,97,79,29.52,29.37,14,5,0,0.62
2014-4-23,53.8,41.1,34.0,51.2,40.3,33.5,98,97,87,29.86,29.51,10,4,0,0.08
2014-4-24,59.5,43.5,25.3,46.1,33.0,24.8,98,73,32,29.98,29.82,7,2,0,0.00
2014-4-25,64.8,51.4,37.9,61.6,45.2,37.4,98,82,48,29.81,29.39,13,4,0,0.32
2014-4-26,50.5,43.0,37.2,50.0,42.5,36.7,98,98,98,29.84,29.54,8,3,0,0.26
2014-4-27,59.0,46.1,36.7,57.9,45.0,36.2,98,96,80,30.01,29.84,11,2,0,0.00
2014-4-28,64.0,48.4,31.1,58.7,46.8,30.6,98,94,82,30.00,29.76,12,4,0,0.00
2014-4-29,59.4,51.5,47.8,58.8,51.0,47.3,98,98,98,29.84,29.66,17,6,0,1.19
2014-4-30,55.8,51.7,47.5,55.2,51.2,47.0,98,98,98,29.87,29.53,11,3,0,0.69
2014-5-1,57.0,51.2,45.1,56.4,50.6,44.6,98,98,98,29.60,29.52,17,6,0,0.02
2014-5-2,51.4,47.0,42.8,50.9,46.5,42.3,98,98,98,29.64,29.51,16,6,0,0.00
2014-5-3,59.7,50.1,43.7,59.1,49.6,43.2,98,98,98,29.62,29.43,14,5,0,0.20
2014-5-4,62.1,47.5,39.2,59.4,47.0,38.7,98,98,91,29.81,29.53,12,5,0,0.00
2014-5-5,62.1,48.8,36.1,60.4,47.8,35.6,98,96,79,29.88,29.75,7,2,0,0.00
2014-5-6,66.0,53.0,42.1,62.9,50.1,41.6,98,91,61,29.95,29.76,9,2,0,0.00
2014-5-7,71.1,55.5,41.0,67.6,53.3,40.5,98,93,68,30.04,29.88,9,4,0,0.00
2014-5-8,83.1,64.7,48.9,82.5,64.1,48.4,98,98,98,29.90,29.79,8,2,0,0.10
2014-5-9,84.9,69.2,57.0,84.3,68.6,56.4,98,98,98,29.79,29.58,12,4,0,0.23
2014-5-10,64.8,57.2,48.4,64.2,56.6,47.9,98,98,98,29.77,29.58,14,6,0,0.02
2014-5-11,74.5,59.2,41.5,65.7,52.5,41.0,98,82,45,29.93,29.77,9,2,0,0.00
2014-5-12,79.3,66.6,50.0,78.7,66.0,49.5,98,98,98,29.89,29.82,7,2,0,0.00
2014-5-13,95.0,73.3,62.2,94.3,72.7,61.6,98,98,98,29.90,29.74,11,3,0,0.96
2014-5-14,87.8,68.7,60.3,87.2,68.1,59.7,98,98,98,29.92,29.79,9,3,0,1.12
2014-5-15,79.9,67.2,51.8,79.3,66.6,51.3,98,98,98,29.79,29.60,13,6,0,0.54
2014-5-16,51.6,47.7,43.5,51.1,47.2,43.0,98,98,98,29.80,29.68,9,4,0,0.61
2014-5-17,59.9,48.9,39.6,59.3,48.4,39.1,98,98,98,29.98,29.78,8,2,0,0.00
2014-5-18,63.9,50.8,39.2,62.4,50.0,38.7,98,97,78,30.08,29.98,9,3,0,0.00
2014-5-19,65.5,54.6,44.4,64.9,54.1,43.9,98,98,98,30.09,29.97,12,4,0,0.00
2014-5-20,75.2,59.5,46.4,74.6,58.9,45.9,98,98,98,30.02,29.78,6,2,0,0.23
2014-5-21,75.7,63.0,53.4,75.1,62.4,52.8,98,98,98,29.77,29.61,7,2,0,0.01
2014-5-22,71.4,60.7,53.4,70.8,60.1,52.8,98,98,98,29.75,29.58,11,2,0,0.01
2014-5-23,55.4,51.5,47.5,54.8,51.0,47.0,98,98,98,29.89,29.73,9,4,0,0.02
2014-5-24,72.5,57.8,47.7,71.9,57.3,47.2,98,98,98,29.96,29.88,8,3,0,0.00
2014-5-25,77.0,62.4,46.9,76.4,61.9,46.4,98,98,96,29.98,29.87,10,3,0,0.00
2014-5-26,77.2,66.3,55.2,76.6,65.7,54.6,98,98,98,29.88,29.71,10,4,0,0.00
2014-5-27,79.0,68.4,62.1,78.4,67.8,61.5,98,98,98,29.72,29.61,14,4,0,0.22
2014-5-28,69.6,61.7,55.9,69.0,61.1,55.3,98,98,98,29.94,29.64,12,3,0,0.00
2014-5-29,71.2,60.6,51.6,70.6,60.0,51.1,98,98,98,29.95,29.89,11,2,0,0.00
2014-5-30,82.0,62.9,46.8,81.4,62.3,46.3,98,98,98,30.00,29.93,9,1,0,0.00
2014-5-31,80.4,63.4,46.8,73.2,57.3,46.3,98,84,51,30.10,29.99,10,2,0,0.00
2014-6-1,94.3,68.9,46.6,80.5,64.4,46.1,98,88,50,30.09,29.87,7,2,0,0.00
2014-6-2,84.9,75.2,63.1,84.3,74.6,62.5,98,98,98,29.88,29.69,12,5,0,0.00
2014-6-3,81.0,71.7,57.9,80.4,71.1,57.3,98,98,98,29.70,29.55,14,4,0,1.30
2014-6-4,75.4,61.9,51.3,74.8,61.3,50.8,98,98,98,29.72,29.58,9,2,0,0.00
2014-6-5,70.2,56.9,48.2,69.6,56.4,47.7,98,98,98,29.73,29.56,7,2,0,0.00
2014-6-6,75.7,60.8,44.6,75.1,60.2,44.1,98,98,98,29.83,29.73,11,2,0,0.00
2014-6-7,91.9,67.7,47.7,84.8,64.5,47.2,98,91,50,29.91,29.75,5,1,0,0.00
2014-6-8,83.3,64.6,51.6,82.7,64.0,51.1,98,98,98,29.75,29.59,8,2,0,0.73
2014-6-9,80.4,68.0,54.5,79.8,67.4,53.9,98,98,98,29.78,29.70,9,2,0,0.00
2014-6-10,81.9,69.9,58.5,81.3,69.3,57.9,98,98,98,29.77,29.72,8,2,0,0.00
2014-6-11,84.6,73.2,65.3,84.0,72.6,64.7,98,98,98,29.74,29.58,7,2,0,0.24
2014-6-12,80.6,71.8,67.1,80.0,71.2,66.5,98,98,98,29.64,29.54,10,3,0,1.11
2014-6-13,78.4,68.2,58.1,77.8,67.6,57.5,98,98,98,29.72,29.53,11,3,0,0.04
2014-6-14,67.6,58.5,51.8,67.0,57.9,51.3,98,98,98,29.93,29.72,8,2,0,0.00
2014-6-15,85.6,63.8,46.6,85.0,63.3,46.1,98,98,98,30.04,29.88,6,1,0,0.00
2014-6-16,86.2,70.2,53.2,85.6,69.6,52.6,98,98,98,29.90,29.78,9,3,0,0.14
2014-6-17,90.0,75.7,63.0,89.4,75.1,62.4,98,98,98,29.86,29.56,9,3,0,0.23
2014-6-18,82.4,71.0,63.5,81.8,70.4,62.9,98,98,98,29.85,29.65,7,2,0,0.03
2014-6-19,81.0,69.3,53.2,80.4,67.3,52.6,98,94,54,29.94,29.82,7,3,0,0.01
2014-6-20,80.8,63.2,46.8,80.2,62.6,46.3,98,98,98,29.94,29.79,7,2,0,0.00
2014-6-21,82.4,66.5,53.4,80.4,65.6,52.8,98,97,88,29.81,29.72,11,2,0,0.00
2014-6-22,86.9,69.0,51.1,83.0,67.3,50.6,98,95,77,29.81,29.76,8,2,0,0.00
2014-6-23,89.1,74.1,55.6,88.5,73.5,55.0,98,98,98,29.82,29.71,7,1,0,0.00
2014-6-24,88.5,78.1,69.8,87.9,77.5,69.2,98,98,98,29.74,29.63,10,4,0,0.24
2014-6-25,81.3,72.5,66.9,80.7,71.9,66.3,98,98,98,29.73,29.65,8,2,0,0.67
2014-6-26,87.8,74.3,65.8,87.2,73.7,65.2,98,98,98,29.84,29.71,8,1,0,0.00
2014-6-27,93.0,75.4,60.6,92.3,74.8,60.0,98,98,98,29.95,29.85,7,2,0,0.00
2014-6-28,94.6,77.8,66.2,93.9,77.2,65.6,98,98,98,30.01,29.90,4,2,0,0.00
2014-6-29,89.4,78.1,69.1,88.8,77.5,68.5,98,98,98,29.93,29.77,8,3,0,0.19
2014-6-30,93.2,80.0,68.9,92.5,79.3,68.3,98,98,98,29.80,29.61,8,3,0,0.01
2014-7-1,88.0,80.0,75.7,87.4,79.4,75.1,98,98,98,29.61,29.41,16,5,0,0.00
2014-7-2,87.4,76.3,68.7,86.8,75.7,68.1,98,98,98,29.69,29.54,10,3,0,0.15
2014-7-3,80.2,70.1,61.3,79.6,69.5,60.7,98,98,98,29.85,29.69,6,1,0,0.12
2014-7-4,80.6,66.1,54.3,78.6,65.3,53.7,98,97,87,30.02,29.85,10,2,0,0.00
2014-7-5,80.4,66.9,50.4,79.8,66.3,49.9,98,98,92,30.07,29.91,9,2,0,0.00
2014-7-6,83.5,71.8,58.6,82.9,71.2,58.0,98,98,98,29.91,29.60,8,4,0,0.00
2014-7-7,80.2,72.7,67.5,79.6,72.1,66.9,98,98,98,29.60,29.45,11,4,0,0.93
2014-7-8,81.9,72.5,66.0,81.3,71.9,65.4,98,98,98,29.52,29.29,9,3,0,0.91
2014-7-9,73.8,66.3,55.6,73.2,65.7,55.0,98,98,98,29.83,29.52,5,1,0,0.42
2014-7-10,82.6,65.9,51.1,82.0,65.3,50.6,98,98,98,30.00,29.84,7,2,0,0.01
2014-7-11,87.6,69.9,53.4,87.0,69.3,52.8,98,98,98,30.05,29.97,6,2,0,0.00
2014-7-12,88.9,74.1,59.7,88.3,73.5,59.1,98,98,98,29.99,29.79,8,2,0,0.00
2014-7-13,81.1,74.5,71.2,80.5,73.9,70.6,98,98,98,29.79,29.57,10,4,0,0.59
2014-7-14,86.7,73.4,63.0,86.1,72.8,62.4,98,98,98,29.70,29.58,5,1,0,0.00
2014-7-15,78.8,70.8,62.6,78.2,70.2,62.0,98,98,98,29.59,29.48,14,3,0,0.10
2014-7-16,74.7,64.9,54.3,74.1,64.3,53.7,98,98,98,29.75,29.59,8,2,0,0.00
2014-7-17,77.7,65.9,53.6,77.1,65.3,53.0,98,98,98,29.94,29.75,7,2,0,0.00
2014-7-18,84.4,68.2,53.1,83.8,67.6,52.5,98,98,98,30.06,29.95,5,1,0,0.00
2014-7-19,71.6,66.0,59.7,71.0,65.4,59.1,98,98,98,30.01,29.91,6,1,0,0.63
2014-7-20,86.7,71.7,64.8,86.1,71.1,64.2,98,98,98,29.91,29.84,5,1,0,0.01
2014-7-21,92.3,75.1,63.7,91.6,74.5,63.1,98,98,98,29.96,29.88,5,1,0,0.00
2014-7-22,91.2,76.0,59.9,90.6,75.4,59.3,98,98,98,29.95,29.73,7,2,0,0.00
2014-7-23,80.4,72.7,64.9,79.8,72.1,64.3,98,98,98,29.80,29.66,10,3,0,0.07
2014-7-24,79.9,66.6,55.2,79.3,66.0,54.6,98,98,98,29.87,29.78,8,2,0,0.00
2014-7-25,79.5,65.4,51.3,78.9,64.8,50.8,98,98,98,29.89,29.77,8,2,0,0.00
2014-7-26,82.2,71.2,58.6,81.6,70.6,58.0,98,98,98,29.77,29.55,8,2,0,0.00
2014-7-27,87.1,76.1,66.2,86.5,75.5,65.6,98,98,98,29.54,29.38,10,3,0,0.03
2014-7-28,68.2,63.0,53.8,67.6,62.4,53.2,98,98,98,29.67,29.36,7,2,0,1.05
2014-7-29,72.7,62.1,50.5,72.1,61.6,50.0,98,98,98,29.77,29.66,7,1,0,0.00
2014-7-30,71.8,63.2,58.3,71.2,62.6,57.7,98,98,98,29.79,29.76,4,1,0,0.53
2014-7-31,77.7,66.9,57.7,77.1,66.3,57.1,98,98,98,29.88,29.78,10,3,0,0.26
2014-8-1,87.6,72.3,58.8,87.0,71.7,58.2,98,98,98,29.94,29.87,8,2,0,0.03
2014-8-2,89.4,72.4,63.9,88.8,71.8,63.3,98,98,98,29.95,29.85,6,1,0,0.68
2014-8-3,74.3,67.7,63.7,73.7,67.1,63.1,98,98,98,29.93,29.87,3,0,0,0.08
2014-8-4,83.7,71.4,61.0,83.1,70.8,60.4,98,98,98,29.91,29.83,8,2,0,0.00
2014-8-5,78.1,67.9,60.8,77.5,67.3,60.2,98,98,98,29.87,29.80,7,0,0,0.08
2014-8-6,81.3,68.4,57.4,80.7,67.8,56.8,98,98,98,29.81,29.76,6,1,0,0.00
2014-8-7,81.1,66.9,54.5,80.5,66.3,53.9,98,98,98,29.90,29.81,10,1,0,0.00
2014-8-8,84.6,65.5,52.3,84.0,64.9,51.8,98,98,98,29.99,29.91,9,1,0,0.00
2014-8-9,87.3,68.9,53.4,86.7,68.3,52.8,98,98,98,29.99,29.93,6,1,0,0.00
2014-8-10,92.8,71.9,55.2,92.1,71.3,54.6,98,98,98,29.97,29.85,8,1,0,0.00
2014-8-11,85.5,74.1,63.9,84.9,73.5,63.3,98,98,98,29.87,29.65,10,4,0,0.00
2014-8-12,80.8,70.2,64.4,80.2,69.6,63.8,98,98,98,29.64,29.50,9,4,0,0.91
2014-8-13,73.6,65.9,52.7,73.0,65.3,52.2,98,98,98,29.71,29.50,10,2,0,0.00
2014-8-14,69.1,60.3,52.2,68.5,59.7,51.7,98,98,98,29.73,29.67,9,2,0,0.00
2014-8-15,75.2,62.3,54.0,74.6,61.7,53.4,98,98,98,29.76,29.71,9,2,0,0.00
2014-8-16,70.7,63.1,53.6,70.1,62.5,53.0,98,98,98,29.75,29.64,13,4,0,0.21
2014-8-17,80.1,68.5,60.6,79.5,67.9,60.0,98,98,98,29.79,29.64,5,1,0,0.01
2014-8-18,80.8,66.0,53.6,80.2,65.4,53.0,98,98,98,29.80,29.68,7,2,0,0.00
2014-8-19,85.5,68.6,52.9,84.9,68.0,52.4,98,98,95,29.70,29.62,5,1,0,0.00
2014-8-20,82.4,72.6,65.5,81.8,72.0,64.9,98,98,98,29.72,29.63,7,1,0,0.00
2014-8-21,84.2,74.2,66.6,83.6,73.6,66.0,98,98,98,29.77,29.71,7,2,0,0.00
2014-8-22,84.9,72.3,63.7,84.3,71.7,63.1,98,98,98,29.82,29.74,8,2,0,0.01
2014-8-23,86.4,71.3,64.6,85.8,70.7,64.0,98,98,98,29.91,29.80,10,3,0,0.00
2014-8-24,88.9,71.4,58.1,88.3,70.8,57.5,98,98,98,29.99,29.91,6,1,0,0.00
2014-8-25,89.2,72.6,60.6,88.6,72.0,60.0,98,98,98,30.00,29.89,8,2,0,0.00
2014-8-26,88.5,75.4,61.7,87.9,74.8,61.1,98,98,98,29.92,29.78,10,3,0,0.00
2014-8-27,86.2,72.9,60.6,85.6,72.3,60.0,98,98,98,29.87,29.79,8,2,0,0.00
2014-8-28,78.1,63.4,51.4,73.6,61.9,50.9,98,95,72,29.95,29.84,8,2,0,0.00
2014-8-29,82.4,64.6,48.7,81.8,63.6,48.2,98,97,77,30.02,29.89,5,1,0,0.00
2014-8-30,92.8,74.7,60.8,92.1,74.1,60.2,98,98,98,29.92,29.73,9,3,0,0.51
2014-8-31,77.5,73.6,69.8,76.9,73.0,69.2,98,98,98,29.77,29.74,11,4,0,0.35
2014-9-1,89.2,76.3,67.6,88.6,75.7,67.0,98,98,98,29.79,29.62,6,2,0,0.22
2014-9-2,78.8,72.1,66.2,78.2,71.5,65.6,98,98,98,29.71,29.60,10,3,0,0.14
2014-9-3,83.7,70.7,59.5,83.1,70.1,58.9,98,98,98,29.89,29.72,6,1,0,0.01
2014-9-4,88.0,73.5,60.4,87.4,72.9,59.8,98,98,98,29.91,29.83,7,2,0,0.00
2014-9-5,90.7,77.8,68.5,90.1,77.2,67.9,98,98,98,29.90,29.69,8,2,0,0.44
2014-9-6,71.4,66.4,52.0,70.8,65.8,51.5,98,98,98,29.88,29.63,7,2,0,0.75
2014-9-7,79.0,62.0,49.8,76.8,59.7,49.3,98,93,51,30.03,29.89,6,1,0,0.00
2014-9-8,83.3,66.2,50.9,82.7,64.8,50.4,98,96,71,30.08,29.94,7,2,0,0.00
2014-9-9,81.0,68.9,59.0,80.4,68.3,58.4,98,98,98,29.98,29.84,9,3,0,0.00
2014-9-10,80.2,70.7,61.9,79.6,70.1,61.3,98,98,98,29.85,29.43,14,4,0,0.03
2014-9-11,73.9,65.4,55.0,73.3,64.8,54.4,98,98,98,29.94,29.37,12,4,0,0.69
2014-9-12,58.6,53.0,43.7,58.0,52.5,43.2,98,98,98,30.09,29.94,9,2,0,0.00
2014-9-13,68.0,51.9,43.5,67.4,51.4,43.0,98,98,98,30.12,29.81,7,2,0,0.09
2014-9-14,69.4,52.4,39.4,68.2,51.7,38.9,98,98,89,30.17,30.02,4,1,0,0.00
2014-9-15,72.0,58.1,48.0,71.4,57.6,47.5,98,98,98,30.03,29.85,6,1,0,0.63
2014-9-16,72.1,58.7,48.4,69.6,57.2,47.9,98,95,64,29.91,29.83,4,1,0,0.09
2014-9-17,73.4,57.0,45.5,72.8,56.5,45.0,98,98,98,29.86,29.76,7,2,0,0.00
2014-9-18,64.4,51.0,40.6,63.8,50.5,40.1,98,98,98,30.03,29.78,7,2,0,0.00
2014-9-19,70.9,52.8,38.1,70.3,52.2,37.6,98,98,91,30.13,29.90,5,1,0,0.00
2014-9-20,79.0,69.7,55.4,78.4,69.1,54.8,98,98,98,29.89,29.59,14,5,0,0.00
2014-9-21,77.9,69.1,56.1,77.3,68.5,55.5,98,98,98,29.57,29.38,13,5,0,0.12
2014-9-22,57.7,51.8,46.2,57.1,51.3,45.7,98,98,98,30.03,29.53,7,2,0,0.00
2014-9-23,71.2,56.9,43.7,70.6,56.3,43.2,98,98,98,30.21,30.04,11,2,0,0.00
2014-9-24,82.4,63.2,47.5,80.2,62.3,47.0,98,97,84,30.33,30.21,6,1,0,0.00
2014-9-25,81.1,63.5,50.5,80.5,62.8,50.0,98,98,90,30.23,30.08,6,1,0,0.00
2014-9-26,83.5,62.6,47.7,80.9,61.7,47.2,98,97,81,30.15,30.05,6,1,0,0.00
2014-9-27,86.4,64.2,49.3,84.0,62.6,48.8,98,95,73,30.13,30.01,5,1,0,0.00
2014-9-28,86.0,66.5,51.6,83.4,65.8,51.1,98,98,92,30.01,29.83,5,1,0,0.00
2014-9-29,80.2,65.7,53.8,79.6,65.1,53.2,98,98,98,29.83,29.68,7,1,0,0.00
2014-9-30,83.1,63.5,53.2,82.5,62.9,52.6,98,98,98,29.79,29.66,7,1,0,0.00
2014-10-1,72.5,63.0,58.8,71.9,62.4,58.2,98,98,98,29.88,29.78,7,2,0,0.00
2014-10-2,77.7,64.8,52.5,77.1,64.2,52.0,98,98,98,29.92,29.77,7,2,0,0.00
2014-10-3,77.0,65.1,57.6,76.4,64.5,57.0,98,98,98,29.77,29.34,11,5,0,0.08
2014-10-4,61.9,50.6,39.9,61.3,50.1,39.4,98,98,98,29.51,29.30,10,3,0,1.12
2014-10-5,47.5,43.2,39.0,47.0,42.7,38.5,98,98,98,29.64,29.47,7,2,0,1.13
2014-10-6,68.5,54.9,43.2,67.9,54.3,42.7,98,98,98,29.63,29.52,8,3,0,0.48
2014-10-7,67.1,59.6,53.1,66.5,59.0,52.5,98,98,98,29.66,29.47,11,4,0,0.17
2014-10-8,62.2,54.7,48.7,61.6,53.4,48.2,98,96,74,29.73,29.44,18,4,0,0.15
2014-10-9,62.1,49.7,37.2,59.5,48.1,36.7,98,95,68,29.86,29.73,10,2,0,0.00
2014-10-10,61.9,49.8,40.6,61.3,49.3,40.1,98,98,98,29.93,29.86,5,1,0,0.00
2014-10-11,61.0,47.4,36.9,59.3,46.8,36.4,98,98,94,30.03,29.90,5,1,0,0.00
2014-10-12,66.2,46.3,31.5,59.3,43.8,31.0,98,92,59,30.10,29.93,6,1,0,0.00
2014-10-13,74.7,60.9,45.1,74.1,60.3,44.6,98,98,98,29.93,29.77,8,2,0,0.35
2014-10-14,82.8,71.7,60.4,82.2,71.1,59.8,98,98,98,29.77,29.55,17,6,0,0.00
2014-10-15,73.9,62.5,55.0,73.3,61.9,54.4,98,98,98,29.66,29.50,14,2,0,0.10
2014-10-16,66.2,59.2,55.6,65.6,58.6,55.0,98,98,98,29.55,29.43,12,2,0,0.06
2014-10-17,63.9,58.5,54.7,63.3,57.9,54.1,98,98,98,29.45,29.30,9,3,0,1.69
2014-10-18,60.1,50.3,43.0,59.5,49.8,42.5,98,98,98,29.76,29.31,8,3,0,0.16
2014-10-19,49.8,41.8,36.0,49.3,41.3,35.5,98,98,98,29.93,29.76,7,2,0,0.00
2014-10-20,57.7,48.5,36.1,57.1,48.0,35.6,98,98,98,29.81,29.60,8,2,0,0.01
2014-10-21,57.0,50.5,45.7,56.4,50.0,45.2,98,98,98,29.91,29.56,12,3,0,0.22
2014-10-22,48.9,46.0,44.2,48.4,45.5,43.7,98,98,98,30.05,29.91,9,3,0,0.01
2014-10-23,64.0,48.9,37.6,63.4,48.4,37.1,98,98,98,29.99,29.83,8,1,0,0.00
2014-10-24,57.2,47.2,36.1,56.6,46.7,35.6,98,98,98,29.85,29.74,9,2,0,0.00
2014-10-25,65.5,55.9,48.6,64.9,55.3,48.1,98,98,98,29.73,29.39,11,4,0,0.00
2014-10-26,52.9,47.9,38.7,52.4,47.4,38.2,98,98,98,29.72,29.45,8,3,0,0.00
2014-10-27,65.3,48.2,32.0,64.7,47.3,31.5,98,97,83,29.84,29.59,5,1,0,0.00
2014-10-28,75.7,65.8,56.8,75.1,65.2,56.2,98,98,98,29.64,29.50,9,4,0,0.14
2014-10-29,57.9,51.4,43.2,57.3,50.9,42.7,98,98,98,29.79,29.64,8,3,0,0.01
2014-10-30,52.9,43.4,35.1,52.4,42.9,34.6,98,98,98,29.88,29.78,6,1,0,0.00
2014-10-31,51.4,44.3,39.6,50.9,43.8,39.1,98,98,98,29.82,29.69,5,1,0,0.07
2014-11-1,42.6,37.5,34.0,42.1,37.0,33.5,98,98,98,29.99,29.77,11,5,0,0.17
2014-11-2,45.1,38.0,29.7,44.0,36.9,29.2,98,96,75,30.11,29.98,9,3,0,0.00
2014-11-3,56.5,48.9,36.3,55.9,45.0,33.0,98,88,44,30.01,29.86,12,5,0,0.00
2014-11-4,62.2,57.2,52.5,58.6,48.7,37.3,98,75,50,29.87,29.67,12,6,0,0.32
2014-11-5,55.2,47.0,35.1,54.6,46.5,34.6,98,98,98,29.92,29.72,12,4,0,0.00
2014-11-6,50.7,42.7,36.7,50.2,42.2,36.2,98,98,98,29.87,29.52,6,1,0,0.02
2014-11-7,42.6,37.4,29.8,42.1,36.9,29.3,98,98,98,29.81,29.55,10,2,0,0.27
2014-11-8,46.8,38.5,26.1,46.3,38.0,25.6,98,98,98,29.78,29.48,14,4,0,0.02
2014-11-9,48.4,40.9,34.2,47.9,40.4,33.7,98,98,98,29.73,29.60,10,4,0,0.00
2014-11-10,61.2,50.3,40.6,55.7,48.0,40.1,98,93,60,29.85,29.65,9,2,0,0.00
2014-11-11,69.6,60.3,50.0,64.2,53.9,45.7,98,82,47,29.66,29.49,11,5,0,0.00
2014-11-12,55.0,39.5,33.6,54.4,39.0,33.1,98,98,98,29.96,29.54,11,6,0,0.03
2014-11-13,35.4,31.3,25.7,34.9,30.8,25.2,98,98,98,29.94,29.85,6,2,0,0.00
2014-11-14,37.2,29.6,24.4,36.7,29.1,23.9,98,98,98,30.06,29.85,7,4,0,0.03
2014-11-15,35.2,29.3,19.9,34.7,28.8,19.4,98,98,98,30.15,30.03,7,2,0,0.00
2014-11-16,39.7,34.4,30.7,36.5,32.8,30.2,98,94,73,30.04,29.74,11,4,0,0.00
2014-11-17,36.0,32.0,22.1,35.5,31.5,21.6,98,98,98,29.73,29.29,11,3,0,0.14
2014-11-18,24.3,19.5,15.3,21.8,16.8,7.0,98,91,50,29.81,29.47,18,7,0,0.00
2014-11-19,30.7,21.1,13.1,30.2,20.6,12.6,98,98,96,29.92,29.49,14,7,0,0.00
2014-11-20,30.4,24.5,18.0,27.0,22.7,17.5,98,93,69,29.80,29.53,13,6,0,0.00
2014-11-21,32.0,23.2,16.3,31.0,21.7,15.8,98,95,63,30.24,29.81,9,5,0,0.02
2014-11-22,41.5,33.6,22.1,41.0,31.2,18.3,98,92,59,30.17,29.77,14,7,0,0.35
2014-11-23,53.8,47.5,41.4,53.2,47.0,40.9,98,98,98,29.86,29.38,11,4,0,0.12
2014-11-24,67.6,54.2,42.8,67.0,53.7,42.3,98,98,98,29.47,29.02,20,10,0,0.14
2014-11-25,43.2,38.1,33.4,42.7,37.6,32.9,98,98,98,30.00,29.48,18,8,0,0.00
2014-11-26,33.6,30.8,27.0,33.1,30.3,26.5,98,98,98,30.04,29.85,9,3,0,0.00
2014-11-27,35.8,30.3,27.1,35.3,29.8,26.6,98,98,98,29.92,29.83,5,2,0,0.01
2014-11-28,30.7,24.3,19.4,30.2,23.7,18.9,98,98,87,30.08,29.92,8,2,0,0.00
2014-11-29,46.4,34.3,23.7,45.9,33.6,23.2,98,97,89,30.00,29.62,8,4,0,0.00
2014-11-30,59.9,54.7,46.8,59.3,54.1,46.3,98,98,98,29.70,29.56,14,7,0,0.09
2014-12-1,48.6,34.5,24.1,48.1,34.0,23.6,98,98,92,30.44,29.72,10,3,0,0.00
2014-12-2,36.0,27.6,16.5,35.5,26.6,16.0,98,96,78,30.45,29.85,8,3,0,0.00
2014-12-3,39.7,36.5,31.6,39.2,36.0,31.1,98,98,98,30.00,29.76,14,7,0,0.20
2014-12-4,36.5,28.3,22.1,31.9,26.2,21.6,98,92,64,30.27,30.01,8,3,0,0.00
2014-12-5,42.8,32.2,20.3,42.3,31.7,19.8,98,98,98,30.27,30.01,8,1,0,0.00
2014-12-6,39.6,36.0,28.0,39.1,35.5,27.5,98,98,98,30.33,29.97,8,3,0,0.15
2014-12-7,34.9,26.2,21.6,27.9,23.1,18.3,98,90,53,30.55,30.33,10,4,0,0.00
2014-12-8,41.0,31.2,20.8,37.4,5.5,-55.5,98,68,1,30.39,29.97,14,4,0,0.00
2014-12-9,50.0,38.8,34.3,49.5,38.3,33.8,98,98,98,29.98,29.85,7,3,0,0.00
2014-12-10,34.5,28.8,24.4,34.0,28.3,23.9,98,98,98,29.88,29.61,9,4,0,0.01
2014-12-11,29.8,25.5,23.2,29.3,25.0,22.7,98,98,98,29.73,29.55,5,0,0,0.00
2014-12-12,40.1,30.1,25.7,39.6,29.6,25.2,98,98,98,29.93,29.74,0,0,0,0.01
2014-12-13,37.2,33.9,31.6,36.7,33.4,31.1,98,98,98,29.91,29.72,11,3,0,0.85
2014-12-14,39.6,37.8,36.3,39.1,37.3,35.8,98,98,98,29.86,29.71,7,2,0,0.02
2014-12-15,40.8,37.6,33.8,40.3,37.1,33.3,98,98,98,29.90,29.74,5,1,0,0.01
2014-12-16,46.2,39.0,30.2,45.7,38.5,29.7,98,98,98,29.75,29.49,12,2,0,0.30
2014-12-17,43.2,36.0,29.3,42.7,35.5,28.8,98,98,98,29.79,29.57,12,7,0,0.35
2014-12-18,34.0,30.0,27.0,33.5,29.5,26.5,98,98,98,29.90,29.79,10,5,0,0.00
2014-12-19,29.3,27.0,24.6,28.8,26.5,24.1,98,98,98,30.07,29.88,7,3,0,0.00
2014-12-20,35.1,27.2,21.0,34.6,26.7,20.5,98,98,98,30.11,30.02,6,1,0,0.00
2014-12-21,36.3,29.4,21.9,35.8,28.9,21.4,98,98,98,30.13,30.06,5,1,0,0.00
2014-12-22,45.3,33.1,24.6,44.8,32.6,24.1,98,98,98,30.09,29.81,5,2,0,0.00
2014-12-23,51.6,43.8,31.5,51.1,43.3,31.0,98,98,98,29.82,29.63,6,2,0,0.00
2014-12-24,58.1,52.2,41.9,57.5,51.6,41.4,98,98,98,29.64,29.00,21,6,0,0.36
2014-12-25,43.7,40.2,38.5,43.2,39.7,38.0,98,98,98,29.93,29.14,21,10,0,0.01
2014-12-26,49.8,40.7,36.5,49.3,40.2,36.0,98,98,98,30.02,29.91,10,5,0,0.00
2014-12-27,54.9,46.1,32.7,54.3,45.6,32.2,98,98,98,29.96,29.68,12,4,0,0.00
2014-12-28,47.8,36.3,27.1,47.3,35.8,26.6,98,98,98,29.93,29.66,9,4,0,0.34
2014-12-29,32.4,26.8,20.3,31.9,26.3,19.8,98,98,98,30.13,29.92,5,1,0,0.00
2014-12-30,32.7,23.7,18.1,32.2,18.4,5.0,98,83,36,30.26,30.13,13,3,0,0.00
2014-12-31,23.4,18.6,13.5,21.1,12.6,-4.2,98,81,32,30.15,29.80,12,6,0,0.00
2015-1-1,31.3,25.2,18.7,30.8,24.7,18.2,98,98,98,29.80,29.60,19,10,0,0.00
2015-1-2,35.4,28.3,18.3,34.7,26.6,17.8,98,94,67,30.21,29.76,13,4,0,0.00